»·PEaware :: N41G KWJF-KSNA

N41G :: KWJF-KSNA

FLIGHT INFORMATION

Flight Status: Arrived
Operator: Privately registered:
United States
More flights under this callsign
Pilot: Alec D. (17934)
Aircraft: BEECH AIRCRAFT BONANZA
(BE35)
More flights by this aircraft type
Origin: KWJF Gen Fox
United States
Destination: KSNA John Wayne-Orange Co
United States
More flights between these airports :: More routes between these airports
Route: PMD V201 BERRI V459 SLI
File this flight plan on PilotEdge
Remarks:
Altitude:
(Current/Filed)
9,000ft
Speed:
(Current/Filed)
160kts
Departed: 23-Mar-20 06:19 PM
Arrived: 23-Mar-20 06:54 PM
Distance/Time
Traveled:
67nm/0:35
Distance/Time
To Go:
Arrived

Flight Plot

Page will automatically refresh every two minutes.


Map Options




Map Legend


Flown Route
Filed Route
Departure Airport
Arrival Airport
Navaid (VOR, NDB)
Fix

Horizontal Profiles

Position Reports

Time Latitude Longitude Heading Altitude Ground
Speed
23-Mar-20 18:01 34.738952 -118.216324 67 2351ft 0kts
23-Mar-20 18:02 34.738952 -118.216323 67 2351ft 0kts
23-Mar-20 18:03 34.738955 -118.216315 67 2351ft 0kts
23-Mar-20 18:04 34.738958 -118.216307 67 2351ft 0kts
23-Mar-20 18:05 34.738960 -118.216299 67 2351ft 0kts
23-Mar-20 18:06 34.738963 -118.216290 67 2351ft 0kts
23-Mar-20 18:07 34.738966 -118.216282 67 2351ft 0kts
23-Mar-20 18:08 34.738969 -118.216274 67 2351ft 0kts
23-Mar-20 18:09 34.738971 -118.216266 67 2351ft 0kts
23-Mar-20 18:10 34.738974 -118.216258 67 2351ft 0kts
23-Mar-20 18:11 34.739037 -118.216159 27 2351ft 3kts
23-Mar-20 18:12 34.740736 -118.215687 71 2351ft 10kts
23-Mar-20 18:13 34.741774 -118.211852 71 2351ft 13kts
23-Mar-20 18:14 34.743175 -118.207111 338 2351ft 9kts
23-Mar-20 18:15 34.743365 -118.207196 341 2351ft 0kts
23-Mar-20 18:16 34.743371 -118.207198 341 2351ft 0kts
23-Mar-20 18:17 34.743965 -118.207765 248 2351ft 9kts
23-Mar-20 18:18 34.737933 -118.228643 212 2886ft 92kts
23-Mar-20 18:19 34.726298 -118.197867 103 4130ft 118kts
23-Mar-20 18:20 34.712716 -118.164863 143 5194ft 111kts
23-Mar-20 18:21 34.688704 -118.139947 141 6192ft 114kts
23-Mar-20 18:22 34.666517 -118.110634 134 7167ft 119kts
23-Mar-20 18:23 34.644089 -118.080720 134 8073ft 121kts
23-Mar-20 18:24 34.616976 -118.071484 208 8916ft 110kts
23-Mar-20 18:25 34.583236 -118.089502 208 9028ft 147kts
23-Mar-20 18:26 34.544052 -118.110300 208 9028ft 157kts
23-Mar-20 18:27 34.503574 -118.131761 207 9033ft 159kts
23-Mar-20 18:28 34.462901 -118.153319 207 9035ft 160kts
23-Mar-20 18:29 34.421911 -118.175065 208 8994ft 161kts
23-Mar-20 18:30 34.380857 -118.196764 207 9000ft 160kts
23-Mar-20 18:31 34.339950 -118.218337 207 8998ft 160kts
23-Mar-20 18:32 34.299099 -118.239898 208 9004ft 160kts
23-Mar-20 18:33 34.257444 -118.261889 207 9004ft 163kts
23-Mar-20 18:34 34.216304 -118.283535 208 9017ft 160kts
23-Mar-20 18:35 34.173117 -118.279330 156 9008ft 171kts
23-Mar-20 18:36 34.128994 -118.253881 157 9007ft 175kts
23-Mar-20 18:37 34.083385 -118.227527 157 9009ft 178kts
23-Mar-20 18:38 34.039661 -118.202257 157 9014ft 172kts
23-Mar-20 18:40 33.996488 -118.177341 157 9019ft 171kts
23-Mar-20 18:41 33.952610 -118.160206 193 8937ft 164kts
23-Mar-20 18:42 33.905829 -118.167573 191 8372ft 171kts
23-Mar-20 18:43 33.857881 -118.175996 191 7711ft 178kts
23-Mar-20 18:44 33.812674 -118.170619 114 7024ft 172kts
23-Mar-20 18:45 33.800634 -118.114988 103 6989ft 166kts
23-Mar-20 18:46 33.789442 -118.059181 104 6515ft 174kts
23-Mar-20 18:47 33.777763 -118.003046 104 5864ft 172kts
23-Mar-20 18:48 33.766464 -117.947083 103 5247ft 172kts
23-Mar-20 18:49 33.755916 -117.891345 104 4294ft 170kts
23-Mar-20 18:50 33.753083 -117.837570 94 3398ft 139kts
23-Mar-20 18:51 33.729776 -117.830692 215 1851ft 128kts
23-Mar-20 18:52 33.704660 -117.850250 211 755ft 91kts
23-Mar-20 18:53 33.684727 -117.863111 209 179ft 78kts
23-Mar-20 18:54 33.674542 -117.868608 150 59ft 10kts
23-Mar-20 18:55 33.673516 -117.867732 181 59ft 0kts
23-Mar-20 18:56 33.673507 -117.867732 181 59ft 0kts
23-Mar-20 18:57 33.673192 -117.867608 153 59ft 9kts
23-Mar-20 18:57 33.670713 -117.869705 217 59ft 14kts
23-Mar-20 18:59 33.668081 -117.871672 33 59ft 0kts
23-Mar-20 19:00 33.668083 -117.871670 33 59ft 0kts
23-Mar-20 19:00 33.668083 -117.871670 33 59ft 0kts

Navigation Log

Ident Type
Flight plan parsing failed, navigation log unavailable